Time;durP1;ratioP1;P1;durP2;ratioP2;P2;SDS_P1;SDS_P2;PMS_P1;PMS_P2;Temp;Humidity;BMP_temperature;BMP_pressure;BME280_temperature;BME280_humidity;BME280_pressure;Samples;Min_cycle;Max_cycle;Signal;HPM_P1;HPM_P2
2023/04/16 00:00:50;;;;;;;1.65;0.60;;;8.10;91.00;;;;;;5008673;28;20037;-70
2023/04/16 00:03:15;;;;;;;1.13;0.47;;;8.10;90.50;;;;;;5018338;28;20033;-71
2023/04/16 00:05:41;;;;;;;2.47;0.60;;;8.20;90.40;;;;;;5015278;28;20392;-71
2023/04/16 00:08:07;;;;;;;2.20;0.73;;;8.20;90.60;;;;;;5016070;28;20072;-71
2023/04/16 00:10:35;;;;;;;2.78;0.70;;;8.30;90.10;;;;;;5009672;28;20026;-71
2023/04/16 00:13:01;;;;;;;1.80;0.80;;;8.30;90.30;;;;;;5016792;28;20022;-71
2023/04/16 00:15:27;;;;;;;2.88;0.80;;;8.30;90.10;;;;;;5019515;28;20084;-71
2023/04/16 00:17:52;;;;;;;3.10;0.80;;;8.10;90.50;;;;;;5008922;28;20022;-71
2023/04/16 00:20:19;;;;;;;2.20;0.55;;;8.30;90.00;;;;;;5009565;28;20033;-71
2023/04/16 00:22:45;;;;;;;2.53;1.08;;;8.40;90.00;;;;;;5007937;28;20053;-71
2023/04/16 00:25:10;;;;;;;3.60;1.73;;;8.40;91.20;;;;;;5011834;28;20033;-71
2023/04/16 00:27:36;;;;;;;4.10;1.20;;;8.30;92.50;;;;;;5014746;28;20026;-71
2023/04/16 00:30:02;;;;;;;2.90;0.73;;;8.30;91.20;;;;;;5009382;28;20095;-72
2023/04/16 00:32:29;;;;;;;3.83;0.80;;;8.10;91.10;;;;;;5012913;28;20025;-71
2023/04/16 00:34:54;;;;;;;1.60;0.75;;;8.00;91.60;;;;;;5008846;28;20049;-71
2023/04/16 00:37:20;;;;;;;1.83;0.63;;;8.00;91.00;;;;;;5018649;28;20105;-71
2023/04/16 00:39:46;;;;;;;1.27;0.38;;;7.70;90.80;;;;;;5014893;28;20411;-71
2023/04/16 00:42:11;;;;;;;1.85;0.63;;;7.70;91.00;;;;;;5016803;28;20796;-71
2023/04/16 00:44:37;;;;;;;1.92;0.70;;;7.80;90.60;;;;;;5019295;28;20017;-70
2023/04/16 00:47:03;;;;;;;1.58;0.60;;;8.00;90.70;;;;;;5010171;28;20034;-71
2023/04/16 00:49:30;;;;;;;1.10;0.32;;;8.10;90.10;;;;;;5007401;28;20049;-72
2023/04/16 00:51:56;;;;;;;1.42;0.77;;;8.00;90.50;;;;;;5014629;28;20392;-71
2023/04/16 00:54:23;;;;;;;2.05;0.68;;;8.10;90.40;;;;;;5021802;28;20030;-72
2023/04/16 00:56:50;;;;;;;1.95;0.80;;;8.20;90.30;;;;;;5018545;28;20411;-71
2023/04/16 00:59:15;;;;;;;3.25;1.52;;;8.20;90.60;;;;;;5021192;28;20061;-71
2023/04/16 01:01:41;;;;;;;3.35;0.88;;;8.10;92.20;;;;;;5013856;28;20064;-71
2023/04/16 01:04:07;;;;;;;1.65;0.88;;;8.10;90.40;;;;;;5014688;28;20079;-72
2023/04/16 01:06:33;;;;;;;2.55;1.20;;;8.30;89.70;;;;;;5011561;28;20040;-72
2023/04/16 01:08:58;;;;;;;2.78;0.73;;;8.30;89.50;;;;;;5020928;28;20048;-71
2023/04/16 01:11:24;;;;;;;1.73;0.75;;;8.30;89.20;;;;;;5011633;28;20047;-71
2023/04/16 01:13:50;;;;;;;2.47;0.98;;;8.40;89.30;;;;;;5016422;28;20059;-71
2023/04/16 01:16:15;;;;;;;2.58;0.65;;;8.50;88.70;;;;;;5012638;28;20042;-71
2023/04/16 01:18:41;;;;;;;2.80;0.77;;;8.60;88.50;;;;;;5018741;28;20041;-71
2023/04/16 01:21:07;;;;;;;1.80;0.75;;;8.60;89.40;;;;;;5016530;28;20036;-72
2023/04/16 01:23:33;;;;;;;5.38;1.00;;;8.50;89.80;;;;;;5021098;28;20026;-71
2023/04/16 01:25:58;;;;;;;2.05;0.77;;;8.30;90.80;;;;;;5014344;28;20119;-71
2023/04/16 01:28:24;;;;;;;2.03;0.80;;;8.20;90.50;;;;;;5011592;28;20483;-71
2023/04/16 01:30:50;;;;;;;1.55;0.63;;;8.20;89.90;;;;;;5015812;28;20033;-71
2023/04/16 01:33:17;;;;;;;2.45;0.70;;;8.20;90.00;;;;;;5022144;28;20026;-71
2023/04/16 01:35:43;;;;;;;2.33;0.63;;;8.50;88.50;;;;;;5013987;28;20048;-71
2023/04/16 01:38:09;;;;;;;2.28;0.63;;;8.30;89.30;;;;;;5013698;28;20472;-71
2023/04/16 01:40:35;;;;;;;1.35;0.43;;;8.30;89.30;;;;;;5011635;28;20022;-71
2023/04/16 01:43:01;;;;;;;2.60;0.98;;;8.30;89.40;;;;;;5018379;28;20037;-71
2023/04/16 01:45:26;;;;;;;1.77;0.80;;;8.10;90.70;;;;;;5024702;28;20029;-71
2023/04/16 01:47:52;;;;;;;2.53;1.08;;;7.90;91.40;;;;;;5024497;28;20033;-72
2023/04/16 01:50:19;;;;;;;2.17;0.60;;;7.80;92.40;;;;;;5020298;28;20078;-71
2023/04/16 01:52:45;;;;;;;2.95;0.75;;;7.50;93.30;;;;;;5030001;28;20025;-71
2023/04/16 01:55:11;;;;;;;0.70;0.35;;;7.50;91.40;;;;;;5016627;28;20385;-71
2023/04/16 01:57:37;;;;;;;1.33;0.60;;;7.80;90.60;;;;;;5024997;28;20072;-71
2023/04/16 02:00:03;;;;;;;2.60;0.80;;;7.90;90.40;;;;;;5021322;28;20120;-71
2023/04/16 02:02:30;;;;;;;3.97;0.80;;;8.00;90.90;;;;;;5015214;28;20030;-72
2023/04/16 02:04:56;;;;;;;1.65;0.60;;;7.80;90.90;;;;;;5025150;28;20060;-72
2023/04/16 02:07:23;;;;;;;2.15;0.68;;;7.90;90.70;;;;;;5017427;28;20116;-71
2023/04/16 02:09:51;;;;;;;2.15;0.55;;;7.80;91.50;;;;;;5022926;28;21293;-71
2023/04/16 02:12:17;;;;;;;1.27;0.63;;;7.80;90.80;;;;;;5018104;28;20091;-71
2023/04/16 02:14:43;;;;;;;1.70;0.70;;;7.90;90.60;;;;;;5018942;28;20030;-71
2023/04/16 02:17:09;;;;;;;1.23;0.40;;;7.90;90.40;;;;;;5016531;28;20026;-71
2023/04/16 02:19:35;;;;;;;1.08;0.40;;;7.90;90.40;;;;;;5025037;28;20520;-71
2023/04/16 02:22:01;;;;;;;1.00;0.63;;;8.00;90.20;;;;;;5023725;28;20120;-72
2023/04/16 02:24:27;;;;;;;1.30;0.40;;;7.80;90.70;;;;;;5010490;28;20075;-71
2023/04/16 02:26:53;;;;;;;2.90;1.13;;;7.70;90.50;;;;;;5019323;28;20416;-71
2023/04/16 02:29:19;;;;;;;0.88;0.20;;;7.60;90.80;;;;;;5024120;28;20041;-71
2023/04/16 02:31:45;;;;;;;1.40;0.52;;;7.50;91.00;;;;;;5015116;28;20044;-71
2023/04/16 02:34:11;;;;;;;3.22;0.98;;;7.60;91.40;;;;;;5010489;28;20092;-71
2023/04/16 02:36:37;;;;;;;1.77;0.77;;;7.50;92.60;;;;;;5018739;28;20051;-71
2023/04/16 02:39:03;;;;;;;1.77;0.80;;;7.20;92.60;;;;;;5026893;28;20030;-71
2023/04/16 02:41:29;;;;;;;3.45;0.95;;;7.10;93.30;;;;;;5016897;28;20038;-72
2023/04/16 02:43:55;;;;;;;2.13;0.70;;;7.00;93.60;;;;;;5011008;28;20108;-70
2023/04/16 02:46:21;;;;;;;1.67;0.63;;;6.80;93.90;;;;;;5021862;28;20099;-71
2023/04/16 02:48:47;;;;;;;4.85;1.02;;;6.90;93.30;;;;;;5016953;28;20140;-71
2023/04/16 02:51:12;;;;;;;1.67;0.80;;;7.00;93.20;;;;;;5021088;28;20434;-72
2023/04/16 02:53:38;;;;;;;2.75;0.65;;;7.00;93.50;;;;;;5013074;28;20029;-71
2023/04/16 02:56:04;;;;;;;1.52;0.70;;;7.10;93.70;;;;;;5014805;28;20033;-71
2023/04/16 02:58:30;;;;;;;1.00;0.60;;;6.90;93.40;;;;;;5021386;28;20048;-71
2023/04/16 03:00:56;;;;;;;3.65;0.88;;;7.00;93.20;;;;;;5017313;28;20365;-71
2023/04/16 03:03:21;;;;;;;4.10;1.33;;;6.80;93.80;;;;;;5020152;28;20022;-71
2023/04/16 03:05:47;;;;;;;2.33;0.50;;;6.90;93.70;;;;;;5012272;28;20021;-71
2023/04/16 03:08:13;;;;;;;1.10;0.43;;;6.90;93.40;;;;;;5013916;28;20053;-71
2023/04/16 03:10:40;;;;;;;2.65;0.80;;;6.90;93.70;;;;;;5012242;28;20060;-72
2023/04/16 03:13:06;;;;;;;1.48;0.70;;;7.10;93.00;;;;;;5015540;28;20061;-71
2023/04/16 03:15:32;;;;;;;4.35;1.20;;;7.20;92.70;;;;;;5020348;28;20112;-70
2023/04/16 03:17:58;;;;;;;1.70;0.65;;;7.30;92.80;;;;;;5015777;28;20037;-71
2023/04/16 03:20:24;;;;;;;1.92;1.00;;;7.20;93.10;;;;;;5013479;28;20025;-70
2023/04/16 03:22:53;;;;;;;2.13;0.90;;;7.10;93.20;;;;;;5016129;28;20073;-71
2023/04/16 03:25:19;;;;;;;2.05;0.73;;;7.00;93.70;;;;;;5015250;28;20100;-71
2023/04/16 03:27:45;;;;;;;1.42;0.60;;;6.90;93.30;;;;;;5012914;28;20296;-71
2023/04/16 03:30:11;;;;;;;0.90;0.45;;;6.90;94.00;;;;;;5005449;28;20030;-70
2023/04/16 03:32:38;;;;;;;1.15;0.45;;;7.10;92.60;;;;;;5020439;28;20075;-72
2023/04/16 03:35:05;;;;;;;1.05;0.40;;;7.50;92.00;;;;;;5011277;28;20041;-70
2023/04/16 03:37:30;;;;;;;2.42;0.90;;;7.50;92.00;;;;;;5017929;28;20049;-71
2023/04/16 03:39:56;;;;;;;1.90;0.90;;;7.30;92.80;;;;;;5019393;28;20021;-70
2023/04/16 03:42:22;;;;;;;2.05;1.20;;;7.30;92.80;;;;;;5011327;28;20018;-70
2023/04/16 03:44:47;;;;;;;3.30;0.90;;;7.10;93.20;;;;;;5017176;28;20048;-71
2023/04/16 03:47:13;;;;;;;5.47;1.88;;;7.20;94.10;;;;;;5017677;28;20060;-70
2023/04/16 03:49:39;;;;;;;3.22;1.33;;;7.00;94.00;;;;;;5023807;28;20486;-72
2023/04/16 03:52:04;;;;;;;1.50;0.55;;;7.00;93.30;;;;;;5011680;28;20028;-71
2023/04/16 03:54:30;;;;;;;1.95;0.93;;;7.10;92.70;;;;;;5009849;28;20041;-72
2023/04/16 03:56:56;;;;;;;4.53;0.98;;;7.10;93.00;;;;;;5013456;28;20029;-72
2023/04/16 03:59:21;;;;;;;12.77;6.20;;;7.10;93.30;;;;;;5014464;28;20067;-72
2023/04/16 04:01:47;;;;;;;2.38;0.85;;;7.00;93.70;;;;;;5009955;28;20395;-72
2023/04/16 04:04:13;;;;;;;1.80;0.50;;;6.80;95.10;;;;;;5011644;28;20026;-72
2023/04/16 04:06:39;;;;;;;0.55;0.30;;;6.70;95.10;;;;;;5008814;28;20029;-70
2023/04/16 04:09:05;;;;;;;1.77;0.50;;;6.80;93.20;;;;;;5004493;28;20061;-71
2023/04/16 04:11:31;;;;;;;1.00;0.40;;;7.00;92.90;;;;;;5005499;28;20064;-72
2023/04/16 04:13:57;;;;;;;2.00;0.60;;;7.10;92.50;;;;;;5016544;28;20029;-72
2023/04/16 04:16:22;;;;;;;2.83;0.93;;;7.10;92.90;;;;;;5014359;28;20104;-71
2023/04/16 04:18:48;;;;;;;0.80;0.40;;;7.00;92.40;;;;;;5008179;28;20033;-72
2023/04/16 04:21:14;;;;;;;2.45;0.95;;;7.10;92.50;;;;;;5002194;28;20116;-71
2023/04/16 04:23:41;;;;;;;3.58;1.05;;;6.80;94.20;;;;;;5008992;28;20207;-72
2023/04/16 04:26:07;;;;;;;3.40;1.27;;;6.70;94.80;;;;;;5016257;28;20404;-72
2023/04/16 04:28:33;;;;;;;1.15;0.55;;;6.80;95.20;;;;;;5019213;28;20149;-72
2023/04/16 04:31:00;;;;;;;2.20;0.98;;;6.80;95.50;;;;;;5015764;28;20067;-72
2023/04/16 04:33:26;;;;;;;1.10;0.60;;;6.70;95.20;;;;;;5025239;28;20033;-72
2023/04/16 04:35:52;;;;;;;2.42;0.75;;;6.60;95.30;;;;;;5008917;28;20044;-72
2023/04/16 04:38:20;;;;;;;2.05;0.80;;;6.50;95.20;;;;;;5023396;28;20028;-71
2023/04/16 04:40:49;;;;;;;1.83;0.63;;;6.50;95.40;;;;;;5010431;28;20029;-72
2023/04/16 04:43:14;;;;;;;0.60;0.20;;;6.60;94.80;;;;;;5022814;28;20041;-72
2023/04/16 04:45:40;;;;;;;0.95;0.40;;;6.70;93.90;;;;;;5023788;28;20037;-73
2023/04/16 04:48:06;;;;;;;1.35;0.50;;;6.90;93.20;;;;;;5005643;28;20072;-72
2023/04/16 04:50:32;;;;;;;0.73;0.30;;;7.10;92.90;;;;;;5012630;28;20037;-71
2023/04/16 04:52:57;;;;;;;0.95;0.30;;;7.10;93.10;;;;;;5010558;28;20053;-71
2023/04/16 04:55:23;;;;;;;0.80;0.30;;;7.10;93.10;;;;;;5019583;28;20035;-72
2023/04/16 04:57:49;;;;;;;1.25;0.47;;;7.20;92.90;;;;;;5021358;28;20041;-71
2023/04/16 05:00:15;;;;;;;2.25;0.70;;;7.10;93.00;;;;;;5022930;28;20396;-72
2023/04/16 05:02:41;;;;;;;2.60;0.75;;;7.30;92.90;;;;;;5008424;28;20030;-72
2023/04/16 05:05:07;;;;;;;1.13;0.52;;;7.30;93.10;;;;;;5020598;28;20670;-72
2023/04/16 05:07:32;;;;;;;0.63;0.30;;;7.40;92.50;;;;;;5008729;28;20562;-72
2023/04/16 05:09:58;;;;;;;1.63;0.55;;;7.40;92.90;;;;;;5014385;28;20120;-72
2023/04/16 05:12:24;;;;;;;0.85;0.40;;;7.20;93.40;;;;;;5008477;28;20022;-72
2023/04/16 05:14:49;;;;;;;2.20;0.93;;;7.30;92.90;;;;;;5019805;28;20079;-72
2023/04/16 05:17:15;;;;;;;2.65;1.02;;;7.20;94.30;;;;;;5020388;28;20814;-72
2023/04/16 05:19:41;;;;;;;3.30;1.45;;;7.10;94.80;;;;;;5008183;28;20029;-72
2023/04/16 05:22:06;;;;;;;3.63;1.80;;;6.90;95.30;;;;;;5014284;28;20553;-72
2023/04/16 05:24:32;;;;;;;2.30;1.38;;;7.00;95.80;;;;;;5013067;28;20057;-71
2023/04/16 05:26:58;;;;;;;2.17;1.13;;;6.90;96.20;;;;;;5011403;28;20065;-72
2023/04/16 05:29:23;;;;;;;3.30;1.30;;;6.90;96.30;;;;;;5005289;28;20033;-71
2023/04/16 05:31:49;;;;;;;3.58;1.30;;;6.90;96.40;;;;;;5018649;28;20075;-72
2023/04/16 05:34:15;;;;;;;2.88;1.25;;;7.00;96.40;;;;;;5018699;28;20100;-73
2023/04/16 05:36:41;;;;;;;3.65;1.63;;;7.00;96.50;;;;;;5014917;28;20039;-73
2023/04/16 05:39:07;;;;;;;3.40;1.45;;;6.90;97.00;;;;;;5018686;28;20037;-71
2023/04/16 05:41:33;;;;;;;1.77;1.08;;;7.00;97.40;;;;;;5016148;28;20018;-72
2023/04/16 05:43:59;;;;;;;0.95;0.50;;;7.10;97.20;;;;;;5006194;28;20022;-73
2023/04/16 05:46:25;;;;;;;2.75;1.55;;;7.30;96.10;;;;;;5009941;28;20033;-73
2023/04/16 05:48:51;;;;;;;3.63;1.25;;;7.20;97.20;;;;;;5008234;28;20045;-73
2023/04/16 05:51:17;;;;;;;2.92;1.17;;;7.10;97.10;;;;;;5007118;28;20034;-73
2023/04/16 05:53:42;;;;;;;4.03;1.50;;;7.00;96.40;;;;;;5010248;28;20403;-74
2023/04/16 05:56:08;;;;;;;3.55;1.30;;;7.10;96.40;;;;;;5007684;28;20022;-73
2023/04/16 05:58:34;;;;;;;3.33;1.38;;;7.30;97.00;;;;;;5011422;28;20036;-74
2023/04/16 06:01:00;;;;;;;2.53;1.10;;;7.40;97.00;;;;;;5013405;28;20033;-73
2023/04/16 06:03:26;;;;;;;3.72;1.70;;;7.30;97.30;;;;;;5009428;28;20022;-74
2023/04/16 06:05:52;;;;;;;6.57;2.63;;;7.40;97.10;;;;;;5009485;28;20025;-73
2023/04/16 06:08:18;;;;;;;6.63;2.83;;;7.50;96.90;;;;;;5011140;28;20127;-74
2023/04/16 06:10:46;;;;;;;9.43;3.45;;;7.50;97.10;;;;;;5008142;28;20036;-74
2023/04/16 06:13:12;;;;;;;4.82;1.50;;;7.60;96.20;;;;;;5007308;28;20028;-75
2023/04/16 06:15:38;;;;;;;3.22;1.10;;;7.60;96.40;;;;;;5004350;28;20030;-73
2023/04/16 06:18:04;;;;;;;3.38;1.50;;;7.70;95.60;;;;;;5004817;28;20044;-74
2023/04/16 06:20:30;;;;;;;3.78;1.83;;;7.80;95.60;;;;;;5008627;28;20029;-74
2023/04/16 06:22:56;;;;;;;3.85;1.52;;;7.90;95.70;;;;;;5010636;28;20029;-75
2023/04/16 06:25:21;;;;;;;4.40;1.45;;;7.90;95.60;;;;;;5008797;28;20048;-74
2023/04/16 06:27:47;;;;;;;4.00;2.35;;;8.00;96.00;;;;;;5004540;28;20167;-74
2023/04/16 06:30:14;;;;;;;3.50;2.08;;;8.10;96.20;;;;;;5005261;28;20124;-74
2023/04/16 06:32:41;;;;;;;4.18;1.52;;;7.90;96.00;;;;;;5010183;28;20505;-73
2023/04/16 06:35:07;;;;;;;2.20;1.30;;;8.10;95.90;;;;;;5010519;28;20026;-73
2023/04/16 06:37:33;;;;;;;3.50;1.95;;;8.10;95.60;;;;;;5006121;28;20162;-74
2023/04/16 06:39:58;;;;;;;4.63;1.55;;;8.30;96.20;;;;;;5011497;28;20030;-74
2023/04/16 06:42:24;;;;;;;3.83;1.50;;;8.30;96.30;;;;;;5007266;28;20431;-73
2023/04/16 06:44:50;;;;;;;4.10;1.40;;;8.20;96.50;;;;;;5009428;28;20600;-74
2023/04/16 06:47:15;;;;;;;6.80;1.75;;;8.20;96.40;;;;;;5012004;28;20684;-74
2023/04/16 06:49:41;;;;;;;3.78;1.50;;;8.10;96.60;;;;;;5017515;28;20525;-74
2023/04/16 06:52:07;;;;;;;3.78;1.63;;;8.30;96.90;;;;;;5013378;28;20029;-75
2023/04/16 06:54:33;;;;;;;4.05;1.98;;;8.50;96.40;;;;;;5014144;28;20042;-75
2023/04/16 06:56:58;;;;;;;4.10;1.92;;;8.80;95.80;;;;;;5012225;28;20050;-74
2023/04/16 06:59:24;;;;;;;4.15;2.28;;;9.00;96.20;;;;;;5012005;28;20053;-74
2023/04/16 07:01:51;;;;;;;3.90;1.45;;;9.30;95.70;;;;;;5006314;28;20064;-74
2023/04/16 07:04:17;;;;;;;5.70;1.77;;;9.20;94.00;;;;;;5016675;28;20037;-73
2023/04/16 07:06:42;;;;;;;1.85;0.80;;;9.10;95.10;;;;;;5007387;28;20443;-74
2023/04/16 07:09:08;;;;;;;3.45;1.52;;;9.40;92.50;;;;;;5019371;28;20049;-74
2023/04/16 07:11:34;;;;;;;5.63;2.53;;;9.40;94.00;;;;;;5014772;28;20033;-73
2023/04/16 07:14:00;;;;;;;5.25;2.28;;;8.90;95.50;;;;;;5006436;28;20030;-74
2023/04/16 07:16:26;;;;;;;4.80;1.75;;;8.90;95.90;;;;;;5008483;28;20029;-73
2023/04/16 07:18:51;;;;;;;4.53;1.85;;;8.80;95.80;;;;;;5002879;28;20033;-74
2023/04/16 07:21:17;;;;;;;4.55;2.13;;;8.80;95.30;;;;;;5002708;28;20033;-73
2023/04/16 07:23:43;;;;;;;4.68;2.25;;;8.90;95.40;;;;;;5005125;28;20025;-74
2023/04/16 07:26:10;;;;;;;6.35;2.70;;;9.00;95.40;;;;;;5010890;28;20034;-73
2023/04/16 07:28:36;;;;;;;3.17;1.10;;;9.40;95.50;;;;;;5019067;28;20128;-74
2023/04/16 07:31:02;;;;;;;5.63;1.95;;;9.40;93.60;;;;;;5002536;28;20108;-75
2023/04/16 07:33:27;;;;;;;4.45;1.90;;;9.60;93.70;;;;;;5001858;28;20061;-74
2023/04/16 07:35:53;;;;;;;4.80;2.20;;;9.30;95.50;;;;;;5011029;28;20387;-74
2023/04/16 07:38:19;;;;;;;2.65;1.17;;;9.30;95.50;;;;;;5004672;28;20675;-73
2023/04/16 07:40:44;;;;;;;7.15;1.83;;;9.60;94.20;;;;;;5009764;28;20053;-73
2023/04/16 07:43:10;;;;;;;4.10;2.00;;;9.70;95.10;;;;;;5010365;28;20059;-74
2023/04/16 07:45:36;;;;;;;3.45;1.70;;;9.30;94.90;;;;;;5011897;28;20045;-73
2023/04/16 07:48:01;;;;;;;5.25;2.20;;;9.00;95.20;;;;;;5013558;28;20434;-73
2023/04/16 07:50:27;;;;;;;3.95;2.30;;;9.30;95.90;;;;;;5016723;28;20040;-74
2023/04/16 07:52:53;;;;;;;4.07;1.52;;;9.80;95.60;;;;;;5014003;28;20029;-73
2023/04/16 07:55:18;;;;;;;3.60;1.60;;;10.00;94.60;;;;;;5006267;28;20030;-72
2023/04/16 07:57:44;;;;;;;3.30;1.48;;;10.30;94.40;;;;;;5024258;28;20120;-73
2023/04/16 08:00:10;;;;;;;2.78;1.40;;;10.40;94.30;;;;;;5009861;28;20036;-73
2023/04/16 08:02:36;;;;;;;3.63;1.63;;;10.50;94.60;;;;;;5020476;28;20120;-73
2023/04/16 08:05:02;;;;;;;4.60;1.73;;;10.60;94.30;;;;;;5009697;28;20124;-73
2023/04/16 08:07:28;;;;;;;4.57;1.95;;;10.60;94.40;;;;;;5016830;28;20057;-73
2023/04/16 08:09:55;;;;;;;3.75;1.88;;;10.60;95.00;;;;;;5031478;28;21940;-73
2023/04/16 08:12:21;;;;;;;3.45;2.20;;;10.70;94.20;;;;;;5033528;28;20117;-72
2023/04/16 08:14:47;;;;;;;3.40;1.92;;;10.80;94.30;;;;;;5037812;28;20065;-73
2023/04/16 08:17:13;;;;;;;3.80;1.75;;;10.90;93.80;;;;;;5044744;28;20033;-73
2023/04/16 08:19:39;;;;;;;2.83;1.38;;;10.90;93.60;;;;;;5044941;28;20029;-73
2023/04/16 08:22:05;;;;;;;8.18;2.22;;;11.10;93.50;;;;;;5043449;28;20025;-73
2023/04/16 08:24:31;;;;;;;3.38;1.50;;;11.20;93.20;;;;;;5024806;28;20486;-73
2023/04/16 08:26:56;;;;;;;3.50;1.30;;;11.10;93.00;;;;;;5024977;28;20095;-73
2023/04/16 08:29:25;;;;;;;2.92;1.27;;;11.20;92.90;;;;;;5025077;28;20383;-73
2023/04/16 08:31:51;;;;;;;4.57;1.40;;;11.40;92.60;;;;;;5025439;28;20061;-73
2023/04/16 08:34:17;;;;;;;3.90;1.58;;;11.50;92.40;;;;;;5025653;28;20057;-73
2023/04/16 08:36:43;;;;;;;3.50;1.23;;;11.50;91.90;;;;;;5024581;28;20061;-73
2023/04/16 08:39:08;;;;;;;5.43;1.77;;;11.70;93.00;;;;;;5024198;28;21095;-74
2023/04/16 08:41:37;;;;;;;2.67;1.00;;;11.70;92.00;;;;;;5024313;28;20056;-72
2023/04/16 08:44:12;;;;;;;2.60;1.02;;;14.00;89.20;;;;;;5037796;28;20044;-72
2023/04/16 08:46:40;;;;;;;2.53;0.90;;;16.60;85.80;;;;;;5041668;28;20041;-72
2023/04/16 08:49:07;;;;;;;2.00;1.00;;;17.90;80.80;;;;;;5031259;28;20061;-72
2023/04/16 08:51:37;;;;;;;2.42;1.10;;;18.70;78.70;;;;;;5024045;28;20032;-72
2023/04/16 08:54:07;;;;;;;2.22;1.00;;;18.60;77.30;;;;;;5027933;28;20095;-73
2023/04/16 08:56:36;;;;;;;5.10;2.47;;;18.80;78.90;;;;;;5022581;28;20079;-73
2023/04/16 08:59:04;;;;;;;2.38;0.95;;;19.70;79.90;;;;;;5033378;28;20068;-72
2023/04/16 09:01:31;;;;;;;3.47;1.17;;;19.70;77.10;;;;;;5033527;28;20474;-72
2023/04/16 09:04:00;;;;;;;4.05;1.20;;;19.10;77.70;;;;;;5031368;28;20439;-72
2023/04/16 09:06:27;;;;;;;1.52;0.60;;;18.80;77.40;;;;;;5028551;28;20041;-72
2023/04/16 09:08:54;;;;;;;2.85;0.98;;;18.50;76.70;;;;;;5030325;28;20677;-73
2023/04/16 09:11:20;;;;;;;2.80;0.80;;;18.40;77.60;;;;;;5033188;28;20037;-73
2023/04/16 09:13:46;;;;;;;6.93;4.07;;;18.20;77.30;;;;;;5031975;28;20059;-73
2023/04/16 09:16:13;;;;;;;9.60;4.85;;;17.90;77.60;;;;;;5029704;28;20545;-72
2023/04/16 09:18:39;;;;;;;9.48;1.83;;;17.40;77.90;;;;;;5037896;28;20029;-72
2023/04/16 09:21:06;;;;;;;11.27;6.15;;;17.10;78.20;;;;;;5032632;28;20037;-72
2023/04/16 09:23:32;;;;;;;2.47;0.88;;;16.40;80.10;;;;;;5025592;28;20025;-72
2023/04/16 09:25:58;;;;;;;1.58;0.85;;;15.10;78.50;;;;;;5025836;28;20040;-73
2023/04/16 09:28:44;;;;;;;0.77;0.50;;;15.00;78.10;;;;;;5031219;28;20030;-73
2023/04/16 09:31:16;;;;;;;2.28;0.93;;;15.00;80.10;;;;;;5039459;28;20152;-73
2023/04/16 09:33:43;;;;;;;1.58;0.73;;;14.80;78.70;;;;;;5030627;28;20715;-72
2023/04/16 09:36:09;;;;;;;3.55;0.85;;;14.90;78.90;;;;;;5031585;28;20495;-73
2023/04/16 09:38:49;;;;;;;1.73;0.60;;;14.90;79.30;;;;;;5041464;28;20070;-72
2023/04/16 09:41:15;;;;;;;1.33;0.60;;;15.30;79.60;;;;;;5038206;28;20109;-73
2023/04/16 09:43:57;;;;;;;9.88;5.18;;;15.30;78.90;;;;;;5027546;28;20688;-74
2023/04/16 09:46:43;;;;;;;63.17;31.38;;;15.50;76.50;;;;;;5033135;28;20120;-73
2023/04/16 09:49:17;;;;;;;2.63;0.90;;;15.50;80.90;;;;;;5027615;28;20573;-72
2023/04/16 09:51:45;;;;;;;47.90;18.65;;;15.20;76.70;;;;;;5025105;28;20120;-73
2023/04/16 09:54:11;;;;;;;15.52;6.88;;;15.40;76.00;;;;;;5025550;28;20034;-73
2023/04/16 09:56:41;;;;;;;4.55;1.60;;;15.80;77.60;;;;;;5030034;28;20040;-72
2023/04/16 09:59:15;;;;;;;2.92;1.17;;;16.00;76.60;;;;;;5030538;28;20033;-73
2023/04/16 10:01:42;;;;;;;3.25;0.80;;;16.10;74.90;;;;;;5024132;28;20021;-73
2023/04/16 10:04:07;;;;;;;1.20;0.43;;;16.10;73.80;;;;;;5023873;28;20095;-73
2023/04/16 10:06:33;;;;;;;3.30;1.20;;;16.30;75.20;;;;;;5030743;28;20025;-73
2023/04/16 10:08:59;;;;;;;2.67;0.95;;;16.70;75.60;;;;;;5034530;28;20045;-73
2023/04/16 10:11:25;;;;;;;1.42;0.50;;;17.00;75.80;;;;;;5024609;28;20117;-73
2023/04/16 10:13:51;;;;;;;2.70;0.60;;;17.10;76.20;;;;;;5030376;28;20021;-73
2023/04/16 10:16:17;;;;;;;1.25;0.63;;;16.70;74.80;;;;;;5026816;28;20387;-73
2023/04/16 10:18:44;;;;;;;2.10;0.50;;;16.70;75.50;;;;;;5030916;28;20078;-73
2023/04/16 10:21:11;;;;;;;2.55;0.80;;;16.60;74.20;;;;;;5027405;28;20923;-73
2023/04/16 10:23:38;;;;;;;8.73;0.98;;;16.70;75.10;;;;;;5029496;28;20392;-73
2023/04/16 10:26:05;;;;;;;0.93;0.20;;;16.80;74.90;;;;;;5023901;28;20897;-73
2023/04/16 10:28:34;;;;;;;0.47;0.22;;;16.60;72.80;;;;;;5034641;28;20044;-73
2023/04/16 10:31:02;;;;;;;0.73;0.30;;;16.50;73.20;;;;;;5027077;28;20061;-73
2023/04/16 10:33:30;;;;;;;1.20;0.30;;;16.60;73.80;;;;;;5032619;28;20032;-73
2023/04/16 10:36:12;;;;;;;0.52;0.28;;;16.70;73.90;;;;;;5029140;28;20648;-73
2023/04/16 10:38:40;;;;;;;0.68;0.30;;;17.20;73.50;;;;;;5034007;28;20049;-73
2023/04/16 10:41:06;;;;;;;0.98;0.30;;;17.10;72.10;;;;;;5030318;28;20067;-73
2023/04/16 10:43:38;;;;;;;0.95;0.35;;;17.40;73.40;;;;;;5037291;28;20108;-73
2023/04/16 10:46:30;;;;;;;0.50;0.28;;;17.60;73.10;;;;;;5022578;28;20064;-74
2023/04/16 10:49:00;;;;;;;1.15;0.30;;;17.60;71.90;;;;;;5024661;28;20116;-73
2023/04/16 10:51:31;;;;;;;0.20;0.20;;;18.00;72.40;;;;;;5029977;28;20032;-73
2023/04/16 10:54:01;;;;;;;4.07;1.95;;;18.30;71.10;;;;;;5023681;28;20068;-73
2023/04/16 10:56:29;;;;;;;0.93;0.30;;;18.40;73.90;;;;;;5027865;28;20037;-73
2023/04/16 10:58:55;;;;;;;0.77;0.30;;;18.20;70.70;;;;;;5028721;28;20072;-73
2023/04/16 11:01:35;;;;;;;0.45;0.20;;;17.90;70.20;;;;;;5024843;28;20487;-73
2023/04/16 11:04:23;;;;;;;1.17;0.32;;;18.40;74.10;;;;;;5023978;28;20531;-72
2023/04/16 11:07:10;;;;;;;6.05;0.43;;;18.80;73.00;;;;;;5027932;28;20035;-73
2023/04/16 11:10:13;;;;;;;1.52;0.40;;;18.80;70.00;;;;;;5028435;28;20069;-73
2023/04/16 11:12:45;;;;;;;0.38;0.20;;;18.60;70.00;;;;;;5032564;28;20044;-75
2023/04/16 11:15:15;;;;;;;4.75;2.30;;;18.70;68.00;;;;;;5032622;28;20483;-74
2023/04/16 11:17:51;;;;;;;8.90;2.80;;;18.80;68.00;;;;;;5045137;28;20040;-73
2023/04/16 11:20:17;;;;;;;3.72;1.27;;;18.90;69.40;;;;;;5032416;28;20021;-73
2023/04/16 11:22:44;;;;;;;1.50;0.52;;;18.80;68.10;;;;;;5031495;28;20040;-74
2023/04/16 11:25:10;;;;;;;0.80;0.22;;;19.00;67.00;;;;;;5026740;28;20036;-73
2023/04/16 11:27:36;;;;;;;1.05;0.30;;;19.10;68.40;;;;;;5022842;28;20533;-74
2023/04/16 11:30:03;;;;;;;0.73;0.40;;;19.20;67.90;;;;;;5032531;28;20049;-73
2023/04/16 11:32:34;;;;;;;1.58;0.93;;;19.30;65.60;;;;;;5027749;28;20025;-73
2023/04/16 11:35:03;;;;;;;1.55;0.30;;;19.20;64.60;;;;;;5022768;28;20068;-74
2023/04/16 11:37:35;;;;;;;0.45;0.10;;;19.30;66.00;;;;;;5028648;28;20395;-72
2023/04/16 11:40:07;;;;;;;1.63;0.47;;;18.80;65.60;;;;;;5033561;28;20036;-72
2023/04/16 11:42:35;;;;;;;0.75;0.20;;;18.20;65.70;;;;;;5028010;28;20067;-75
2023/04/16 11:45:02;;;;;;;4.00;2.17;;;18.30;65.70;;;;;;5022337;28;20056;-73
2023/04/16 11:47:30;;;;;;;0.98;0.20;;;18.50;66.50;;;;;;5024346;28;20047;-74
2023/04/16 11:49:56;;;;;;;0.52;0.20;;;18.80;65.40;;;;;;5035580;28;20086;-71
2023/04/16 11:52:29;;;;;;;2.33;0.50;;;18.50;65.40;;;;;;5029413;28;20025;-73
2023/04/16 11:54:55;;;;;;;3.30;1.05;;;18.60;67.00;;;;;;5036487;28;20029;-73
2023/04/16 11:57:29;;;;;;;0.82;0.10;;;18.90;67.10;;;;;;5029797;28;20028;-73
2023/04/16 11:59:56;;;;;;;0.73;0.15;;;18.50;65.80;;;;;;5027958;28;20037;-73
2023/04/16 12:02:38;;;;;;;0.30;0.10;;;18.30;66.20;;;;;;5026410;28;20036;-73
2023/04/16 12:05:06;;;;;;;0.80;0.35;;;18.50;67.60;;;;;;5031255;28;20037;-73
2023/04/16 12:07:42;;;;;;;0.68;0.30;;;18.40;66.60;;;;;;5029303;28;20040;-72
2023/04/16 12:10:09;;;;;;;0.95;0.52;;;18.40;66.30;;;;;;5027957;28;20071;-72
2023/04/16 12:12:35;;;;;;;1.15;0.52;;;18.90;67.30;;;;;;5030911;28;20052;-73
2023/04/16 12:15:02;;;;;;;3.70;1.85;;;18.80;65.40;;;;;;5035124;28;20025;-73
2023/04/16 12:17:32;;;;;;;2.15;1.10;;;19.10;65.90;;;;;;5024072;28;20060;-73
2023/04/16 12:20:00;;;;;;;0.20;0.05;;;19.20;66.80;;;;;;5027361;28;20026;-73
2023/04/16 12:22:31;;;;;;;0.28;0.00;;;19.20;65.30;;;;;;5026177;28;20060;-72
2023/04/16 12:25:02;;;;;;;0.88;0.20;;;19.00;65.80;;;;;;5036291;28;20029;-72
2023/04/16 12:27:42;;;;;;;1.17;0.25;;;18.90;65.70;;;;;;5025162;28;20852;-72
2023/04/16 12:30:08;;;;;;;0.57;0.20;;;19.20;64.70;;;;;;5029118;28;20033;-73
2023/04/16 12:32:33;;;;;;;0.63;0.20;;;19.80;65.70;;;;;;5025035;28;20095;-72
2023/04/16 12:34:59;;;;;;;0.35;0.10;;;19.90;63.90;;;;;;5033555;28;20030;-73
2023/04/16 12:37:26;;;;;;;1.52;0.10;;;19.90;64.70;;;;;;5027712;28;20026;-72
2023/04/16 12:39:51;;;;;;;1.02;0.38;;;19.70;64.30;;;;;;5045631;28;20025;-72
2023/04/16 12:42:17;;;;;;;0.60;0.20;;;19.90;64.20;;;;;;5055817;28;20051;-73
2023/04/16 12:44:43;;;;;;;0.90;0.45;;;20.20;63.10;;;;;;5042676;28;20021;-73
2023/04/16 12:47:08;;;;;;;0.60;0.05;;;20.40;64.50;;;;;;5049276;28;20061;-73
2023/04/16 12:49:35;;;;;;;0.73;0.13;;;20.30;63.20;;;;;;5051796;28;20040;-72
2023/04/16 12:52:01;;;;;;;1.17;0.15;;;20.40;64.20;;;;;;5032544;28;20034;-73